createdAt,value
2022-11-27T00:00:04.300Z,18.30
2022-11-27T00:01:16.505Z,18.03
2022-11-27T00:02:17.823Z,18.93
2022-11-27T00:03:19.278Z,18.47
2022-11-27T00:04:20.672Z,18.90
2022-11-27T00:05:22.028Z,19.80
2022-11-27T00:06:24.358Z,19.83
2022-11-27T00:07:25.873Z,19.63
2022-11-27T00:08:27.268Z,20.07
2022-11-27T00:09:28.656Z,20.00
2022-11-27T00:10:29.939Z,19.47
2022-11-27T00:11:32.179Z,19.77
2022-11-27T00:12:33.508Z,19.87
2022-11-27T00:13:34.896Z,20.00
2022-11-27T00:14:36.186Z,19.23
2022-11-27T00:15:37.608Z,19.33
2022-11-27T00:16:38.997Z,19.73
2022-11-27T00:17:40.294Z,19.23
2022-11-27T00:18:41.896Z,17.33
2022-11-27T00:19:43.270Z,19.10
2022-11-27T00:20:44.613Z,19.17
2022-11-27T00:21:45.901Z,17.90
2022-11-27T00:22:47.267Z,17.53
2022-11-27T00:23:48.804Z,19.20
2022-11-27T00:24:50.140Z,18.37
2022-11-27T00:25:54.155Z,18.40
2022-11-27T00:26:55.447Z,18.90
2022-11-27T00:27:56.850Z,18.87
2022-11-27T00:28:58.313Z,18.57
2022-11-27T00:29:59.624Z,18.80
2022-11-27T00:31:01.881Z,18.53
2022-11-27T00:32:03.572Z,18.73
2022-11-27T00:33:04.997Z,18.13
2022-11-27T00:34:07.610Z,18.17
2022-11-27T00:35:09.228Z,17.77
2022-11-27T00:36:11.759Z,16.47
2022-11-27T00:37:14.734Z,17.87
2022-11-27T00:38:16.024Z,16.97
2022-11-27T00:39:17.477Z,17.27
2022-11-27T00:40:18.883Z,17.53
2022-11-27T00:41:21.677Z,17.47
2022-11-27T00:42:23.066Z,16.97
2022-11-27T00:43:24.476Z,17.53
2022-11-27T00:44:25.785Z,17.27
2022-11-27T00:45:27.476Z,17.03
2022-11-27T00:46:30.277Z,17.33
2022-11-27T00:47:31.656Z,17.43
2022-11-27T00:48:33.612Z,17.30
2022-11-27T00:49:34.959Z,18.13
2022-11-27T00:50:36.723Z,16.77
2022-11-27T00:51:38.051Z,17.37
2022-11-27T00:52:39.450Z,16.83
2022-11-27T00:53:40.966Z,17.80
2022-11-27T00:54:42.417Z,16.30
2022-11-27T00:55:45.736Z,17.40
2022-11-27T00:56:47.035Z,16.97
2022-11-27T00:57:48.322Z,16.50
2022-11-27T00:58:50.105Z,17.30
2022-11-27T00:59:51.447Z,15.40
2022-11-27T01:00:59.719Z,15.13
2022-11-27T01:02:01.110Z,16.47
2022-11-27T01:03:02.660Z,15.70
2022-11-27T01:04:05.007Z,14.77
2022-11-27T01:05:06.677Z,15.70
2022-11-27T01:06:08.076Z,14.20
2022-11-27T01:07:09.537Z,14.97
2022-11-27T01:08:10.967Z,14.50
2022-11-27T01:09:14.921Z,14.93
2022-11-27T01:10:16.290Z,14.27
2022-11-27T01:11:19.429Z,14.47
2022-11-27T01:12:20.723Z,14.87
2022-11-27T01:13:26.115Z,14.80
2022-11-27T01:14:27.436Z,14.33
2022-11-27T01:15:28.859Z,15.10
2022-11-27T01:16:31.218Z,14.47
2022-11-27T01:17:32.594Z,14.47
2022-11-27T01:18:34.504Z,14.27
2022-11-27T01:19:37.074Z,14.33
2022-11-27T01:20:39.872Z,14.03
2022-11-27T01:21:41.496Z,14.47
2022-11-27T01:22:42.816Z,14.00
2022-11-27T01:23:44.429Z,14.20
2022-11-27T01:24:46.199Z,14.57
2022-11-27T01:25:48.270Z,14.57
2022-11-27T01:26:49.575Z,14.20
2022-11-27T01:27:50.890Z,14.43
2022-11-27T01:28:53.409Z,13.83
2022-11-27T01:29:54.813Z,14.30
2022-11-27T01:30:56.330Z,13.63
2022-11-27T01:31:57.717Z,14.67
2022-11-27T01:32:59.007Z,14.27
2022-11-27T01:34:01.641Z,14.63
2022-11-27T01:35:03.098Z,14.13
2022-11-27T01:36:05.654Z,14.27
2022-11-27T01:37:06.974Z,14.80
2022-11-27T01:38:08.639Z,14.83
2022-11-27T01:39:14.119Z,14.83
2022-11-27T01:40:15.480Z,15.93
2022-11-27T01:41:18.767Z,16.07
2022-11-27T01:42:20.089Z,15.67
2022-11-27T01:43:36.330Z,14.43
2022-11-27T01:44:37.968Z,15.43
2022-11-27T01:45:39.724Z,14.73
2022-11-27T01:46:46.256Z,14.93
2022-11-27T01:47:52.615Z,15.13
2022-11-27T01:48:55.782Z,14.87
2022-11-27T01:50:03.032Z,14.83
2022-11-27T01:51:04.459Z,14.23
2022-11-27T01:52:15.176Z,14.17
2022-11-27T01:53:18.028Z,13.73
2022-11-27T01:54:20.812Z,14.87
2022-11-27T01:55:31.362Z,13.87
2022-11-27T01:56:32.724Z,13.33
2022-11-27T01:57:38.705Z,14.80
2022-11-27T01:58:40.443Z,13.87
2022-11-27T01:59:42.012Z,14.17
2022-11-27T02:00:43.453Z,14.80
2022-11-27T02:01:44.833Z,14.57
2022-11-27T02:02:46.692Z,13.83
2022-11-27T02:03:48.060Z,14.93
2022-11-27T02:04:49.395Z,13.80
2022-11-27T02:05:50.737Z,15.23
2022-11-27T02:06:52.026Z,14.80
2022-11-27T02:07:53.716Z,15.03
2022-11-27T02:08:55.947Z,15.60
2022-11-27T02:09:57.299Z,15.73
2022-11-27T02:11:02.939Z,14.40
2022-11-27T02:12:10.327Z,15.20
2022-11-27T02:13:20.535Z,14.90
2022-11-27T02:14:21.864Z,15.47
2022-11-27T02:15:23.251Z,15.40
2022-11-27T02:16:47.651Z,14.53
2022-11-27T02:17:57.045Z,14.57
2022-11-27T02:19:00.982Z,14.40
2022-11-27T02:20:20.993Z,14.80
2022-11-27T02:21:41.054Z,14.50
2022-11-27T02:22:57.484Z,14.77
2022-11-27T02:24:04.801Z,14.57
2022-11-27T02:25:28.293Z,14.30
2022-11-27T02:26:29.990Z,13.77
2022-11-27T02:27:50.329Z,14.30
2022-11-27T02:28:54.347Z,13.67
2022-11-27T02:30:01.409Z,13.77
2022-11-27T02:31:15.562Z,14.43
2022-11-27T02:32:22.580Z,14.07
2022-11-27T02:33:23.951Z,14.03
2022-11-27T02:34:25.301Z,14.00
2022-11-27T02:35:30.441Z,13.97
2022-11-27T02:36:33.593Z,13.13
2022-11-27T02:37:47.439Z,13.77
2022-11-27T02:38:53.089Z,13.97
2022-11-27T02:39:57.425Z,14.30
2022-11-27T02:41:17.581Z,13.77
2022-11-27T02:42:20.304Z,14.53
2022-11-27T02:43:23.967Z,14.70
2022-11-27T02:44:27.877Z,15.40
2022-11-27T02:45:33.273Z,14.83
2022-11-27T02:46:34.845Z,15.33
2022-11-27T02:47:36.615Z,14.03
2022-11-27T02:48:44.780Z,13.73
2022-11-27T02:49:47.038Z,13.43
2022-11-27T02:50:48.971Z,14.00
2022-11-27T02:51:57.832Z,14.20
2022-11-27T02:53:01.452Z,14.27
2022-11-27T02:54:05.387Z,14.20
2022-11-27T02:55:08.577Z,13.43
2022-11-27T02:56:12.481Z,13.73
2022-11-27T02:57:13.987Z,14.07
2022-11-27T02:58:16.708Z,14.67
2022-11-27T02:59:18.986Z,13.70
2022-11-27T03:00:20.396Z,14.57
2022-11-27T03:01:22.551Z,14.33
2022-11-27T03:02:29.151Z,14.23
2022-11-27T03:03:34.061Z,13.67
2022-11-27T03:04:40.402Z,13.73
2022-11-27T03:05:43.344Z,13.73
2022-11-27T03:06:49.239Z,13.80
2022-11-27T03:08:01.490Z,14.00
2022-11-27T03:09:05.980Z,14.00
2022-11-27T03:10:14.216Z,15.50
2022-11-27T03:11:15.976Z,14.87
2022-11-27T03:12:18.241Z,14.57
2022-11-27T03:13:19.863Z,14.87
2022-11-27T03:14:24.472Z,15.40
2022-11-27T03:15:29.002Z,14.47
2022-11-27T03:16:58.280Z,15.17
2022-11-27T03:18:03.567Z,16.03
2022-11-27T03:19:04.893Z,15.60
2022-11-27T03:20:06.342Z,15.20
2022-11-27T03:21:17.792Z,15.27
2022-11-27T03:22:19.226Z,15.63
2022-11-27T03:23:20.564Z,16.30
2022-11-27T03:24:22.051Z,15.43
2022-11-27T03:25:23.967Z,16.13
2022-11-27T03:26:25.850Z,15.80
2022-11-27T03:27:30.567Z,15.87
2022-11-27T03:28:32.489Z,15.30
2022-11-27T03:29:36.703Z,15.67
2022-11-27T03:30:39.924Z,16.53
2022-11-27T03:31:41.451Z,16.13
2022-11-27T03:32:42.979Z,16.37
2022-11-27T03:33:44.646Z,16.00
2022-11-27T03:34:46.886Z,14.90
2022-11-27T03:35:48.220Z,16.07
2022-11-27T03:36:49.590Z,15.80
2022-11-27T03:37:51.303Z,16.37
2022-11-27T03:38:53.088Z,15.53
2022-11-27T03:39:54.773Z,15.03
2022-11-27T03:41:02.910Z,14.60
2022-11-27T03:42:24.134Z,14.47
2022-11-27T03:43:27.528Z,14.53
2022-11-27T03:44:47.845Z,15.23
2022-11-27T03:45:57.612Z,14.67
2022-11-27T03:47:17.767Z,14.47
2022-11-27T03:48:21.990Z,14.13
2022-11-27T03:49:23.291Z,15.70
2022-11-27T03:50:40.129Z,14.70
2022-11-27T03:51:49.421Z,14.13
2022-11-27T03:52:56.615Z,14.23
2022-11-27T03:54:21.074Z,14.43
2022-11-27T03:55:25.547Z,14.33
2022-11-27T03:56:26.868Z,14.47
2022-11-27T03:57:54.661Z,14.30
2022-11-27T03:59:07.424Z,14.20
2022-11-27T04:00:09.303Z,13.93
2022-11-27T04:01:12.383Z,14.60
2022-11-27T04:02:14.472Z,13.30
2022-11-27T04:03:21.311Z,14.53
2022-11-27T04:04:22.661Z,13.90
2022-11-27T04:05:24.009Z,13.17
2022-11-27T04:06:25.374Z,13.97
2022-11-27T04:07:26.757Z,13.37
2022-11-27T04:08:28.249Z,14.57
2022-11-27T04:09:29.577Z,13.40
2022-11-27T04:10:31.437Z,13.13
2022-11-27T04:11:33.123Z,14.10
2022-11-27T04:12:34.475Z,14.13
2022-11-27T04:13:35.875Z,13.93
2022-11-27T04:14:37.303Z,14.37
2022-11-27T04:15:38.828Z,14.30
2022-11-27T04:16:40.249Z,14.50
2022-11-27T04:17:41.645Z,13.77
2022-11-27T04:18:42.983Z,13.63
2022-11-27T04:19:44.313Z,15.53
2022-11-27T04:20:45.662Z,13.70
2022-11-27T04:21:46.945Z,14.13
2022-11-27T04:22:48.240Z,13.80
2022-11-27T04:23:49.537Z,14.23
2022-11-27T04:24:51.039Z,14.17
2022-11-27T04:25:52.397Z,13.90
2022-11-27T04:26:53.852Z,14.67
2022-11-27T04:27:55.242Z,14.17
2022-11-27T04:28:56.632Z,14.13
2022-11-27T04:29:58.043Z,14.47
2022-11-27T04:30:59.505Z,15.17
2022-11-27T04:32:00.826Z,14.40
2022-11-27T04:33:02.457Z,14.37
2022-11-27T04:34:03.821Z,14.90
2022-11-27T04:35:05.528Z,15.37
2022-11-27T04:36:06.926Z,15.00
2022-11-27T04:37:08.286Z,15.47
2022-11-27T04:38:09.779Z,14.50
2022-11-27T04:39:12.423Z,14.37
2022-11-27T04:40:13.890Z,15.20
2022-11-27T04:41:15.260Z,14.33
2022-11-27T04:42:16.766Z,14.30
2022-11-27T04:43:18.148Z,14.03
2022-11-27T04:44:19.556Z,13.93
2022-11-27T04:45:20.945Z,14.50
2022-11-27T04:46:23.015Z,13.70
2022-11-27T04:47:24.426Z,13.60
2022-11-27T04:48:25.804Z,14.07
2022-11-27T04:49:27.140Z,14.37
2022-11-27T04:50:28.732Z,13.30
2022-11-27T04:51:30.258Z,13.77
2022-11-27T04:52:31.632Z,13.90
2022-11-27T04:53:33.078Z,13.57
2022-11-27T04:54:34.408Z,14.27
2022-11-27T04:55:35.802Z,14.03
2022-11-27T04:56:37.101Z,14.17
2022-11-27T04:57:38.393Z,13.43
2022-11-27T04:58:39.762Z,14.27
2022-11-27T04:59:41.097Z,14.47
2022-11-27T05:00:42.469Z,13.90
2022-11-27T05:01:43.895Z,13.80
2022-11-27T05:02:45.270Z,13.47
2022-11-27T05:03:47.515Z,13.50
2022-11-27T05:04:49.022Z,13.97
2022-11-27T05:05:57.300Z,13.80
2022-11-27T05:06:58.643Z,13.00
2022-11-27T05:08:00.065Z,13.47
2022-11-27T05:09:02.184Z,13.70
2022-11-27T05:10:04.301Z,13.00
2022-11-27T05:11:07.621Z,13.23
2022-11-27T05:12:09.047Z,13.37
2022-11-27T05:13:10.470Z,12.43
2022-11-27T05:14:14.995Z,13.00
2022-11-27T05:15:16.408Z,12.97
2022-11-27T05:16:17.990Z,13.10
2022-11-27T05:17:19.319Z,13.57
2022-11-27T05:18:20.829Z,13.40
2022-11-27T05:19:23.159Z,13.40
2022-11-27T05:20:24.443Z,12.73
2022-11-27T05:21:25.748Z,13.30
2022-11-27T05:22:27.112Z,12.80
2022-11-27T05:23:28.618Z,12.93
2022-11-27T05:24:30.035Z,12.57
2022-11-27T05:25:31.353Z,12.80
2022-11-27T05:26:33.271Z,12.77
2022-11-27T05:27:34.559Z,12.90
2022-11-27T05:28:35.867Z,12.30
2022-11-27T05:29:37.272Z,13.10
2022-11-27T05:30:38.618Z,13.00
2022-11-27T05:31:40.416Z,13.30
2022-11-27T05:32:41.814Z,12.80
2022-11-27T05:33:43.320Z,12.30
2022-11-27T05:34:44.695Z,13.00
2022-11-27T05:35:46.034Z,13.27
2022-11-27T05:36:47.475Z,13.30
2022-11-27T05:37:48.832Z,12.40
2022-11-27T05:38:50.280Z,13.50
2022-11-27T05:39:51.716Z,12.73
2022-11-27T05:40:53.085Z,12.70
2022-11-27T05:41:54.487Z,13.00
2022-11-27T05:42:55.782Z,12.77
2022-11-27T05:43:57.192Z,12.90
2022-11-27T05:44:58.792Z,13.27
2022-11-27T05:46:04.380Z,13.00
2022-11-27T05:47:05.784Z,12.73
2022-11-27T05:48:07.229Z,12.33
2022-11-27T05:49:09.755Z,13.00
2022-11-27T05:50:11.052Z,12.97
2022-11-27T05:51:12.534Z,13.50
2022-11-27T05:52:13.848Z,12.83
2022-11-27T05:53:15.266Z,12.23
2022-11-27T05:54:16.602Z,12.83
2022-11-27T05:55:17.950Z,13.07
2022-11-27T05:56:19.302Z,11.90
2022-11-27T05:57:20.623Z,12.70
2022-11-27T05:58:21.943Z,12.83
2022-11-27T05:59:23.269Z,12.73
2022-11-27T06:00:26.870Z,13.37
2022-11-27T06:01:28.252Z,12.17
2022-11-27T06:02:29.938Z,12.63
2022-11-27T06:03:31.444Z,12.77
2022-11-27T06:04:34.318Z,11.97
2022-11-27T06:05:38.681Z,12.73
2022-11-27T06:06:40.064Z,12.27
2022-11-27T06:07:41.442Z,12.50
2022-11-27T06:08:43.355Z,12.53
2022-11-27T06:09:44.723Z,12.53
2022-11-27T06:10:47.701Z,13.13
2022-11-27T06:11:49.127Z,12.73
2022-11-27T06:12:50.474Z,12.47
2022-11-27T06:13:51.788Z,13.03
2022-11-27T06:14:53.056Z,12.70
2022-11-27T06:15:54.384Z,13.30
2022-11-27T06:16:55.739Z,13.23
2022-11-27T06:17:57.119Z,12.27
2022-11-27T06:18:59.071Z,13.30
2022-11-27T06:20:00.437Z,12.83
2022-11-27T06:21:05.494Z,12.60
2022-11-27T06:22:06.817Z,12.67
2022-11-27T06:23:08.212Z,12.10
2022-11-27T06:24:10.667Z,12.27
2022-11-27T06:25:12.126Z,12.47
2022-11-27T06:26:13.449Z,12.37
2022-11-27T06:27:14.802Z,12.63
2022-11-27T06:28:16.108Z,12.17
2022-11-27T06:29:17.460Z,12.10
2022-11-27T06:30:18.900Z,12.80
2022-11-27T06:31:21.567Z,12.57
2022-11-27T06:32:22.988Z,12.60
2022-11-27T06:33:24.351Z,12.93
2022-11-27T06:34:25.751Z,12.93
2022-11-27T06:35:27.085Z,12.50
2022-11-27T06:36:33.037Z,12.53
2022-11-27T06:37:34.380Z,12.60
2022-11-27T06:38:36.639Z,12.33
2022-11-27T06:39:37.989Z,13.33
2022-11-27T06:40:39.285Z,12.97
2022-11-27T06:41:40.697Z,12.50
2022-11-27T06:42:42.112Z,12.80
2022-11-27T06:43:43.889Z,12.83
2022-11-27T06:44:46.333Z,12.80
2022-11-27T06:45:54.896Z,13.53
2022-11-27T06:46:56.298Z,11.73
2022-11-27T06:47:58.478Z,11.83
2022-11-27T06:49:00.539Z,12.57
2022-11-27T06:50:01.874Z,12.70
2022-11-27T06:51:04.348Z,12.43
2022-11-27T06:52:05.917Z,12.27
2022-11-27T06:53:07.215Z,11.87
2022-11-27T06:54:08.695Z,11.63
2022-11-27T06:55:10.011Z,11.77
2022-11-27T06:56:12.642Z,12.40
2022-11-27T06:57:14.510Z,12.23
2022-11-27T06:58:15.929Z,12.70
2022-11-27T06:59:17.565Z,12.10
2022-11-27T07:00:19.106Z,12.30
2022-11-27T07:01:21.323Z,11.60
2022-11-27T07:02:22.708Z,11.63
2022-11-27T07:03:24.707Z,11.90
2022-11-27T07:04:26.107Z,12.07
2022-11-27T07:05:27.411Z,12.10
2022-11-27T07:06:28.751Z,13.07
2022-11-27T07:07:30.100Z,12.77
2022-11-27T07:08:31.862Z,12.60
2022-11-27T07:09:33.175Z,12.30
2022-11-27T07:10:35.093Z,11.87
2022-11-27T07:11:38.063Z,12.33
2022-11-27T07:12:39.375Z,12.00
2022-11-27T07:13:41.040Z,12.00
2022-11-27T07:14:42.620Z,12.03
2022-11-27T07:15:44.274Z,12.50
2022-11-27T07:16:45.692Z,11.87
2022-11-27T07:17:47.109Z,12.43
2022-11-27T07:18:53.198Z,11.83
2022-11-27T07:19:54.586Z,11.77
2022-11-27T07:20:56.774Z,12.43
2022-11-27T07:21:58.261Z,12.13
2022-11-27T07:22:59.703Z,12.13
2022-11-27T07:24:01.128Z,11.60
2022-11-27T07:25:02.440Z,12.00
2022-11-27T07:26:07.691Z,12.63
2022-11-27T07:27:09.076Z,11.67
2022-11-27T07:28:13.579Z,12.40
2022-11-27T07:29:17.331Z,12.13
2022-11-27T07:30:18.703Z,12.17
2022-11-27T07:31:21.773Z,12.10
2022-11-27T07:32:23.130Z,12.17
2022-11-27T07:33:25.039Z,11.90
2022-11-27T07:34:26.396Z,12.40
2022-11-27T07:35:27.721Z,12.20
2022-11-27T07:36:30.027Z,12.33
2022-11-27T07:37:31.900Z,11.53
2022-11-27T07:38:33.636Z,11.87
2022-11-27T07:40:00.737Z,12.00
2022-11-27T07:40:59.265Z,11.53
2022-11-27T07:42:16.749Z,11.93
2022-11-27T07:43:22.315Z,11.70
2022-11-27T07:44:23.652Z,11.80
2022-11-27T07:45:25.018Z,12.67
2022-11-27T07:46:26.502Z,12.60
2022-11-27T07:47:29.160Z,12.50
2022-11-27T07:48:30.599Z,11.90
2022-11-27T07:49:31.914Z,12.53
2022-11-27T07:50:33.315Z,11.50
2022-11-27T07:51:34.627Z,11.20
2022-11-27T07:52:41.011Z,12.47
2022-11-27T07:53:43.741Z,10.80
2022-11-27T07:54:45.094Z,11.53
2022-11-27T07:55:46.386Z,11.70
2022-11-27T07:56:47.688Z,11.83
2022-11-27T07:57:52.246Z,11.50
2022-11-27T07:58:53.691Z,11.87
2022-11-27T07:59:55.049Z,11.47
2022-11-27T08:00:56.551Z,11.80
2022-11-27T08:01:58.030Z,11.60
2022-11-27T08:02:59.849Z,12.63
2022-11-27T08:04:01.192Z,12.17
2022-11-27T08:05:04.793Z,12.17
2022-11-27T08:06:14.410Z,11.77
2022-11-27T08:07:15.768Z,12.20
2022-11-27T08:08:17.098Z,11.80
2022-11-27T08:09:18.451Z,11.63
2022-11-27T08:10:19.759Z,11.80
2022-11-27T08:11:25.608Z,11.97
2022-11-27T08:12:27.011Z,12.07
2022-11-27T08:13:28.310Z,11.43
2022-11-27T08:14:29.716Z,11.77
2022-11-27T08:15:31.022Z,11.77
2022-11-27T08:16:33.267Z,12.07
2022-11-27T08:17:34.645Z,11.80
2022-11-27T08:18:35.956Z,12.67
2022-11-27T08:19:37.284Z,13.23
2022-11-27T08:20:38.716Z,13.50
2022-11-27T08:21:40.118Z,12.30
2022-11-27T08:22:41.444Z,13.27
2022-11-27T08:23:42.730Z,12.80
2022-11-27T08:24:44.038Z,12.80
2022-11-27T08:25:45.313Z,13.20
2022-11-27T08:26:46.609Z,13.03
2022-11-27T08:27:48.414Z,12.37
2022-11-27T08:28:52.040Z,12.10
2022-11-27T08:29:53.441Z,13.27
2022-11-27T08:31:01.611Z,13.47
2022-11-27T08:32:03.720Z,12.93
2022-11-27T08:33:05.179Z,14.87
2022-11-27T08:34:06.609Z,13.47
2022-11-27T08:35:08.562Z,13.77
2022-11-27T08:36:14.947Z,13.57
2022-11-27T08:37:19.418Z,15.17
2022-11-27T08:38:21.582Z,14.80
2022-11-27T08:39:22.984Z,15.10
2022-11-27T08:40:24.297Z,16.73
2022-11-27T08:41:25.645Z,16.63
2022-11-27T08:42:27.021Z,15.53
2022-11-27T08:43:28.807Z,15.70
2022-11-27T08:44:30.149Z,15.90
2022-11-27T08:45:32.868Z,15.63
2022-11-27T08:46:34.242Z,14.37
2022-11-27T08:47:35.698Z,13.70
2022-11-27T08:48:37.068Z,14.10
2022-11-27T08:49:41.493Z,14.67
2022-11-27T08:50:45.065Z,13.93
2022-11-27T08:51:46.393Z,13.37
2022-11-27T08:52:47.736Z,12.83
2022-11-27T08:53:49.039Z,12.63
2022-11-27T08:54:55.975Z,12.47
2022-11-27T08:56:05.005Z,13.37
2022-11-27T08:57:06.329Z,14.17
2022-11-27T08:58:09.001Z,13.90
2022-11-27T08:59:10.336Z,15.00
2022-11-27T09:00:12.002Z,13.67
2022-11-27T09:01:21.338Z,15.07
2022-11-27T09:02:22.719Z,14.93
2022-11-27T09:03:24.035Z,13.77
2022-11-27T09:04:25.419Z,14.33
2022-11-27T09:05:27.381Z,13.23
2022-11-27T09:06:30.406Z,13.73
2022-11-27T09:07:31.785Z,14.03
2022-11-27T09:08:33.130Z,14.10
2022-11-27T09:09:35.818Z,13.20
2022-11-27T09:10:37.134Z,13.90
2022-11-27T09:11:38.508Z,13.50
2022-11-27T09:12:43.360Z,13.80
2022-11-27T09:13:45.223Z,13.30
2022-11-27T09:14:46.735Z,13.33
2022-11-27T09:15:48.125Z,13.43
2022-11-27T09:16:49.588Z,12.77
2022-11-27T09:17:51.107Z,12.80
2022-11-27T09:18:56.558Z,13.40
2022-11-27T09:20:01.161Z,13.33
2022-11-27T09:21:07.228Z,13.53
2022-11-27T09:22:08.779Z,14.23
2022-11-27T09:23:14.271Z,13.10
2022-11-27T09:24:15.968Z,13.53
2022-11-27T09:25:17.359Z,12.80
2022-11-27T09:26:18.764Z,13.07
2022-11-27T09:27:20.098Z,13.63
2022-11-27T09:28:21.601Z,13.17
2022-11-27T09:29:23.279Z,13.33
2022-11-27T09:30:24.599Z,13.53
2022-11-27T09:31:26.386Z,13.53
2022-11-27T09:32:27.868Z,12.70
2022-11-27T09:33:30.839Z,12.87
2022-11-27T09:34:37.158Z,12.53
2022-11-27T09:35:39.274Z,11.43
2022-11-27T09:36:40.806Z,12.20
2022-11-27T09:37:42.132Z,12.13
2022-11-27T09:38:44.102Z,11.33
2022-11-27T09:39:45.442Z,11.30
2022-11-27T09:40:51.089Z,11.63
2022-11-27T09:41:57.195Z,11.53
2022-11-27T09:43:02.078Z,12.23
2022-11-27T09:44:06.489Z,12.07
2022-11-27T09:45:11.791Z,11.43
2022-11-27T09:46:18.970Z,11.90
2022-11-27T09:47:36.139Z,11.47
2022-11-27T09:48:42.151Z,11.57
2022-11-27T09:49:57.036Z,11.57
2022-11-27T09:51:00.281Z,11.20
2022-11-27T09:52:10.919Z,10.83
2022-11-27T09:53:12.293Z,11.87
2022-11-27T09:54:22.295Z,10.27
2022-11-27T09:55:26.164Z,10.30
2022-11-27T09:56:29.125Z,11.37
2022-11-27T09:57:35.937Z,10.13
2022-11-27T09:58:41.547Z,10.43
2022-11-27T09:59:49.094Z,10.10
2022-11-27T10:00:50.411Z,10.00
2022-11-27T10:01:51.812Z,9.77
2022-11-27T10:02:53.901Z,9.50
2022-11-27T10:03:56.021Z,9.40
2022-11-27T10:05:13.890Z,9.50
2022-11-27T10:06:30.950Z,9.90
2022-11-27T10:07:48.836Z,10.40
2022-11-27T10:08:57.149Z,9.00
2022-11-27T10:10:01.493Z,9.10
2022-11-27T10:11:14.103Z,8.87
2022-11-27T10:12:34.241Z,8.60
2022-11-27T10:13:41.729Z,7.73
2022-11-27T10:14:43.333Z,7.23
2022-11-27T10:15:50.905Z,7.73
2022-11-27T10:17:13.555Z,7.57
2022-11-27T10:18:17.665Z,7.70
2022-11-27T10:19:27.115Z,14.23
2022-11-27T10:20:44.671Z,15.10
2022-11-27T10:21:48.713Z,11.93
2022-11-27T10:23:12.306Z,10.40
2022-11-27T10:24:36.474Z,8.83
2022-11-27T10:25:51.832Z,8.07
2022-11-27T10:26:54.105Z,9.17
2022-11-27T10:28:10.942Z,9.30
2022-11-27T10:29:25.068Z,9.23
2022-11-27T10:30:28.281Z,7.03
2022-11-27T10:31:35.268Z,6.50
2022-11-27T10:34:02.816Z,8.70
2022-11-27T10:35:09.314Z,11.30
2022-11-27T10:36:14.324Z,9.40
2022-11-27T10:37:15.647Z,7.27
2022-11-27T10:38:24.064Z,6.37
2022-11-27T10:39:30.591Z,5.97
2022-11-27T10:40:50.853Z,6.40
2022-11-27T10:41:57.046Z,5.40
2022-11-27T10:43:10.710Z,6.47
2022-11-27T10:44:29.805Z,6.70
2022-11-27T10:45:40.328Z,5.47
2022-11-27T10:46:41.753Z,5.93
2022-11-27T10:47:43.909Z,6.40
2022-11-27T10:48:45.402Z,5.77
2022-11-27T10:49:46.975Z,5.87
2022-11-27T10:50:48.774Z,5.17
2022-11-27T10:51:50.641Z,5.13
2022-11-27T10:53:00.505Z,5.40
2022-11-27T10:54:03.573Z,4.77
2022-11-27T10:55:12.197Z,4.83
2022-11-27T10:56:15.118Z,5.80
2022-11-27T10:57:34.897Z,5.70
2022-11-27T10:58:54.910Z,5.50
2022-11-27T10:59:56.230Z,5.27
2022-11-27T11:01:04.694Z,6.30
2022-11-27T11:02:08.536Z,5.60
2022-11-27T11:03:15.732Z,6.27
2022-11-27T11:04:37.577Z,5.40
2022-11-27T11:06:19.326Z,6.27
2022-11-27T11:07:33.892Z,5.63
2022-11-27T11:08:36.930Z,5.43
2022-11-27T11:09:46.076Z,4.60
2022-11-27T11:10:51.619Z,4.93
2022-11-27T11:11:53.204Z,4.47
2022-11-27T11:13:04.587Z,4.70
2022-11-27T11:14:15.203Z,4.40
2022-11-27T11:15:16.548Z,4.37
2022-11-27T11:16:24.323Z,4.43
2022-11-27T11:17:27.170Z,4.30
2022-11-27T11:18:32.839Z,4.20
2022-11-27T11:19:36.818Z,4.10
2022-11-27T11:20:38.285Z,4.53
2022-11-27T11:21:40.850Z,4.80
2022-11-27T11:22:45.429Z,4.80
2022-11-27T11:23:52.554Z,5.07
2022-11-27T11:24:54.149Z,5.00
2022-11-27T11:25:57.002Z,4.23
2022-11-27T11:26:59.700Z,5.10
2022-11-27T11:28:01.034Z,4.53
2022-11-27T11:29:04.077Z,4.63
2022-11-27T11:30:05.820Z,4.80
2022-11-27T11:31:09.634Z,4.40
2022-11-27T11:32:13.164Z,4.20
2022-11-27T11:33:14.648Z,4.73
2022-11-27T11:34:28.912Z,4.40
2022-11-27T11:35:34.894Z,4.50
2022-11-27T11:36:36.428Z,4.77
2022-11-27T11:37:45.040Z,4.57
2022-11-27T11:38:47.259Z,4.77
2022-11-27T11:39:57.151Z,4.10
2022-11-27T11:41:03.691Z,4.47
2022-11-27T11:42:18.450Z,4.90
2022-11-27T11:43:24.177Z,5.13
2022-11-27T11:44:35.381Z,4.53
2022-11-27T11:45:44.718Z,4.70
2022-11-27T11:46:50.755Z,4.40
2022-11-27T11:47:53.196Z,4.73
2022-11-27T11:48:55.550Z,4.47
2022-11-27T11:49:57.489Z,4.77
2022-11-27T11:51:01.566Z,4.53
2022-11-27T11:52:11.968Z,5.27
2022-11-27T11:53:32.038Z,5.03
2022-11-27T11:54:36.366Z,4.23
2022-11-27T11:56:00.699Z,4.00
2022-11-27T11:57:03.222Z,4.80
2022-11-27T11:58:10.070Z,5.27
2022-11-27T11:59:31.558Z,7.60
2022-11-27T12:01:04.436Z,5.87
2022-11-27T12:02:25.590Z,7.20
2022-11-27T12:03:33.074Z,7.13
2022-11-27T12:04:41.738Z,7.93
2022-11-27T12:06:01.926Z,6.37
2022-11-27T12:07:11.185Z,4.43
2022-11-27T12:08:15.397Z,3.90
2022-11-27T12:09:20.763Z,3.90
2022-11-27T12:10:30.187Z,3.73
2022-11-27T12:11:34.694Z,3.80
2022-11-27T12:12:41.782Z,3.60
2022-11-27T12:14:02.055Z,3.57
2022-11-27T12:15:09.347Z,3.60
2022-11-27T12:16:22.959Z,3.70
2022-11-27T12:17:24.338Z,4.00
2022-11-27T12:18:44.126Z,4.00
2022-11-27T12:19:48.530Z,3.60
2022-11-27T12:20:52.981Z,3.53
2022-11-27T12:22:15.337Z,3.67
2022-11-27T12:23:16.685Z,3.87
2022-11-27T12:24:26.886Z,3.77
2022-11-27T12:25:30.271Z,3.50
2022-11-27T12:26:47.142Z,4.10
2022-11-27T12:28:03.762Z,4.63
2022-11-27T12:29:28.434Z,3.80
2022-11-27T12:30:44.352Z,3.37
2022-11-27T12:31:56.236Z,4.10
2022-11-27T12:32:57.705Z,4.73
2022-11-27T12:34:02.109Z,4.73
2022-11-27T12:35:18.915Z,4.00
2022-11-27T12:36:23.099Z,3.47
2022-11-27T12:37:24.389Z,3.23
2022-11-27T12:38:44.614Z,3.07
2022-11-27T12:39:58.190Z,2.90
2022-11-27T12:41:05.678Z,2.87
2022-11-27T12:42:20.452Z,2.70
2022-11-27T12:43:26.900Z,3.10
2022-11-27T12:44:47.392Z,3.03
2022-11-27T12:45:51.890Z,3.53
2022-11-27T12:46:58.518Z,3.20
2022-11-27T12:48:05.653Z,2.97
2022-11-27T12:49:22.110Z,3.00
2022-11-27T12:50:44.151Z,3.10
2022-11-27T12:51:54.647Z,2.90
2022-11-27T12:53:18.897Z,2.80
2022-11-27T12:54:40.582Z,3.10
2022-11-27T12:55:44.975Z,3.10
2022-11-27T12:56:52.009Z,2.80
2022-11-27T12:58:03.194Z,2.93
2022-11-27T12:59:18.645Z,3.30
2022-11-27T13:00:21.367Z,3.10
2022-11-27T13:01:31.313Z,3.60
2022-11-27T13:02:42.135Z,2.97
2022-11-27T13:03:58.991Z,3.07
2022-11-27T13:05:02.525Z,2.97
2022-11-27T13:06:06.327Z,2.70
2022-11-27T13:07:15.012Z,3.13
2022-11-27T13:08:19.671Z,2.80
2022-11-27T13:09:25.841Z,2.97
2022-11-27T13:10:33.921Z,2.90
2022-11-27T13:11:38.937Z,3.53
2022-11-27T13:12:44.468Z,5.47
2022-11-27T13:13:47.929Z,4.70
2022-11-27T13:14:55.057Z,4.47
2022-11-27T13:16:03.677Z,4.00
2022-11-27T13:17:08.936Z,3.10
2022-11-27T13:18:29.070Z,3.03
2022-11-27T13:19:32.770Z,3.07
2022-11-27T13:20:37.233Z,3.33
2022-11-27T13:21:39.409Z,3.50
2022-11-27T13:22:41.124Z,3.30
2022-11-27T13:23:42.489Z,3.63
2022-11-27T13:24:44.129Z,4.00
2022-11-27T13:25:49.560Z,3.47
2022-11-27T13:27:03.092Z,4.07
2022-11-27T13:28:05.497Z,3.03
2022-11-27T13:29:13.447Z,3.60
2022-11-27T13:30:20.203Z,4.00
2022-11-27T13:31:25.971Z,4.67
2022-11-27T13:32:32.956Z,4.40
2022-11-27T13:33:34.865Z,4.60
2022-11-27T13:34:44.581Z,4.30
2022-11-27T13:35:45.994Z,4.70
2022-11-27T13:36:54.922Z,5.30
2022-11-27T13:37:58.977Z,4.60
2022-11-27T13:39:01.222Z,4.53
2022-11-27T13:40:05.771Z,4.47
2022-11-27T13:41:08.168Z,4.13
2022-11-27T13:42:12.598Z,4.53
2022-11-27T13:43:28.810Z,5.07
2022-11-27T13:44:30.460Z,7.70
2022-11-27T13:45:34.003Z,7.87
2022-11-27T13:46:44.097Z,7.80
2022-11-27T13:47:45.614Z,8.37
2022-11-27T13:49:07.186Z,8.20
2022-11-27T13:50:10.311Z,7.57
2022-11-27T13:51:21.533Z,8.70
2022-11-27T13:52:22.944Z,8.33
2022-11-27T13:53:33.577Z,8.63
2022-11-27T13:54:34.965Z,8.67
2022-11-27T13:55:37.905Z,9.63
2022-11-27T13:56:39.542Z,9.30
2022-11-27T13:57:51.055Z,9.07
2022-11-27T13:58:52.415Z,9.27
2022-11-27T13:59:57.848Z,9.70